createdAt,value
2023-03-16T00:06:45.363Z,91893.78
2023-03-16T00:15:09.078Z,91883.58
2023-03-16T00:23:35.616Z,91889.81
2023-03-16T00:31:58.565Z,91872.19
2023-03-16T00:40:21.467Z,91834.88
2023-03-16T00:48:46.740Z,91793.15
2023-03-16T00:57:12.221Z,91771.84
2023-03-16T01:05:40.113Z,91772.77
2023-03-16T01:14:03.838Z,91755.23
2023-03-16T01:22:27.409Z,91731.71
2023-03-16T01:30:57.747Z,91708.45
2023-03-16T01:39:21.145Z,91711.98
2023-03-16T01:47:45.099Z,91735.19
2023-03-16T01:56:13.326Z,91704.73
2023-03-16T02:04:53.587Z,91637.50
2023-03-16T02:13:17.467Z,91621.63
2023-03-16T02:22:03.506Z,91629.08
2023-03-16T02:30:29.754Z,91624.94
2023-03-16T02:38:56.441Z,91593.55
2023-03-16T02:47:42.626Z,91588.07
2023-03-16T02:56:05.929Z,91615.79
2023-03-16T03:04:33.157Z,91585.28
2023-03-16T03:12:59.199Z,91519.98
2023-03-16T03:21:24.168Z,91483.85
2023-03-16T03:29:47.426Z,91474.31
2023-03-16T03:38:12.227Z,91429.73
2023-03-16T03:46:36.989Z,91363.61
2023-03-16T03:55:00.920Z,91314.06
2023-03-16T04:03:24.240Z,91315.55
2023-03-16T04:11:47.289Z,91272.16
2023-03-16T04:20:15.018Z,91232.52
2023-03-16T04:28:40.006Z,91241.56
2023-03-16T04:37:06.044Z,91244.40
2023-03-16T04:45:30.537Z,91224.64
2023-03-16T04:53:55.981Z,91215.36
2023-03-16T05:02:24.523Z,91214.41
2023-03-16T05:10:48.724Z,91205.27
2023-03-16T05:19:12.684Z,91213.77
2023-03-16T05:27:35.948Z,91224.27
2023-03-16T05:36:00.367Z,91233.93
2023-03-16T05:44:25.298Z,91289.13
2023-03-16T05:53:08.889Z,91363.67
2023-03-16T06:01:34.334Z,91416.84
2023-03-16T06:09:58.681Z,91509.65
2023-03-16T06:18:23.353Z,92150.06
2023-03-16T06:26:46.456Z,93026.71
2023-03-16T06:35:10.380Z,93650.88
2023-03-16T06:43:36.969Z,94072.27
2023-03-16T06:52:00.961Z,94213.27
2023-03-16T07:00:24.503Z,94081.73
2023-03-16T07:08:47.506Z,93845.65
2023-03-16T07:17:15.214Z,93697.63
2023-03-16T07:25:41.312Z,93678.24
2023-03-16T07:34:06.078Z,93720.19
2023-03-16T07:42:37.194Z,93757.63
2023-03-16T07:51:12.250Z,93845.69
2023-03-16T07:59:36.036Z,93965.84
2023-03-16T08:08:01.859Z,94060.12
2023-03-16T08:16:29.015Z,94167.95
2023-03-16T08:24:53.946Z,94235.10
2023-03-16T08:33:23.376Z,94254.02
2023-03-16T08:41:49.791Z,94301.87
2023-03-16T08:50:24.755Z,94347.86
2023-03-16T08:58:51.523Z,94416.55
2023-03-16T09:07:15.432Z,94489.31
2023-03-16T09:15:39.489Z,94585.05
2023-03-16T09:24:08.041Z,94633.39
2023-03-16T09:32:37.487Z,94654.03
2023-03-16T09:41:17.080Z,94647.96
2023-03-16T09:49:47.721Z,94439.30
2023-03-16T09:58:21.350Z,94268.16
2023-03-16T10:07:04.293Z,94235.55
2023-03-16T10:15:32.701Z,94289.30
2023-03-16T10:24:02.299Z,94421.09
2023-03-16T10:32:34.639Z,94368.77
2023-03-16T10:41:00.016Z,94202.30
2023-03-16T10:49:29.859Z,94282.49
2023-03-16T10:57:55.814Z,94407.07
2023-03-16T11:06:24.931Z,94440.71
2023-03-16T11:14:50.172Z,94541.25
2023-03-16T11:23:21.219Z,94655.36
2023-03-16T11:31:59.972Z,94776.90
2023-03-16T11:40:51.296Z,94727.56
2023-03-16T11:49:21.561Z,94865.55
2023-03-16T11:58:37.722Z,94973.33
2023-03-16T12:07:22.042Z,94876.18
2023-03-16T12:15:54.616Z,94862.71
2023-03-16T12:24:26.592Z,94889.39
2023-03-16T12:33:00.827Z,94925.83
2023-03-16T12:41:34.725Z,94784.70
2023-03-16T12:50:12.908Z,94545.38
2023-03-16T12:58:43.645Z,94392.23
2023-03-16T13:07:24.068Z,94285.13
2023-03-16T13:15:49.798Z,94206.56
2023-03-16T13:24:20.230Z,94167.55
2023-03-16T13:32:46.118Z,94112.40
2023-03-16T13:41:14.991Z,94077.33
2023-03-16T13:49:56.701Z,94106.52
2023-03-16T13:58:26.611Z,94114.11
2023-03-16T14:07:01.967Z,94103.52
2023-03-16T14:15:37.084Z,94092.38
2023-03-16T14:24:04.571Z,94086.45
2023-03-16T14:32:38.462Z,94108.80
2023-03-16T14:41:13.611Z,94095.02
2023-03-16T14:49:38.716Z,94058.55
2023-03-16T14:58:02.591Z,94027.44
2023-03-16T15:06:26.633Z,94021.27
2023-03-16T15:15:07.886Z,93998.90
2023-03-16T15:23:31.197Z,93983.39
2023-03-16T15:31:54.769Z,93943.85
2023-03-16T15:40:26.753Z,93910.30
2023-03-16T15:48:49.811Z,93859.82
2023-03-16T15:57:13.067Z,93811.42
2023-03-16T16:05:36.594Z,93770.30
2023-03-16T16:13:59.705Z,93728.24
2023-03-16T16:22:23.576Z,93675.84
2023-03-16T16:30:47.503Z,93605.70
2023-03-16T16:39:11.939Z,93520.85
2023-03-16T16:47:35.145Z,93413.90
2023-03-16T16:55:58.176Z,93303.21
2023-03-16T17:04:27.333Z,93185.67
2023-03-16T17:12:52.217Z,93073.30
2023-03-16T17:21:19.924Z,92970.52
2023-03-16T17:29:43.239Z,92852.50
2023-03-16T17:38:21.264Z,92744.01
2023-03-16T17:46:44.320Z,92677.23
2023-03-16T17:55:08.005Z,92592.48
2023-03-16T18:03:31.613Z,92493.96
2023-03-16T18:11:54.936Z,92395.06
2023-03-16T18:20:30.948Z,92317.59
2023-03-16T18:28:55.623Z,92298.66
2023-03-16T18:37:26.140Z,92346.73
2023-03-16T18:45:49.946Z,92349.59
2023-03-16T18:54:28.648Z,92312.30
2023-03-16T19:03:03.362Z,92241.46
2023-03-16T19:11:27.990Z,92165.30
2023-03-16T19:19:51.280Z,92154.69
2023-03-16T19:28:34.256Z,92189.48
2023-03-16T19:36:57.457Z,92205.53
2023-03-16T19:45:29.313Z,92165.45
2023-03-16T19:53:52.472Z,92116.11
2023-03-16T20:02:29.553Z,92084.40
2023-03-16T20:10:59.121Z,92025.45
2023-03-16T20:19:23.140Z,91959.29
2023-03-16T20:27:53.798Z,91898.05
2023-03-16T20:36:17.148Z,91866.42
2023-03-16T20:44:40.103Z,91832.77
2023-03-16T20:53:03.009Z,91803.80
2023-03-16T21:01:26.760Z,91756.36
2023-03-16T21:09:53.459Z,91696.35
2023-03-16T21:24:27.652Z,91611.88
2023-03-16T21:33:31.517Z,91587.90
2023-03-16T21:41:54.428Z,91550.13
2023-03-16T21:50:23.238Z,91502.44
2023-03-16T21:58:47.237Z,91474.48
2023-03-16T22:07:14.089Z,91453.56
2023-03-16T22:15:38.873Z,91401.02
2023-03-16T22:24:05.430Z,91340.56
2023-03-16T22:32:28.909Z,91306.98
2023-03-16T22:40:52.190Z,91315.32
2023-03-16T22:49:29.001Z,91301.00
2023-03-16T22:58:02.392Z,91279.23
2023-03-16T23:06:32.309Z,91261.58
2023-03-16T23:14:55.936Z,91240.42
2023-03-16T23:23:19.271Z,91201.57
2023-03-16T23:31:42.643Z,91164.52
2023-03-16T23:40:06.295Z,91159.84
2023-03-16T23:48:31.488Z,91142.31
2023-03-16T23:56:54.560Z,91124.39
